Time;durP1;ratioP1;P1;durP2;ratioP2;P2;SDS_P1;SDS_P2;PMS_P1;PMS_P2;Temp;Humidity;BMP_temperature;BMP_pressure;BME280_temperature;BME280_humidity;BME280_pressure;Samples;Min_cycle;Max_cycle;Signal;HPM_P1;HPM_P2
2022/10/04 00:02:06;;;;;;;;;5.00;5.00;25.70;99.90;;;;;;4978717;28;9592;-71
2022/10/04 00:05:04;;;;;;;;;6.00;6.00;25.50;99.90;;;;;;4993117;28;8854;-71
2022/10/04 00:07:46;;;;;;;;;6.50;6.50;25.40;99.90;;;;;;5000828;28;8834;-71
2022/10/04 00:10:34;;;;;;;;;5.75;5.75;25.30;99.90;;;;;;5000170;28;8893;-70
2022/10/04 00:13:14;;;;;;;;;6.00;6.00;25.10;99.90;;;;;;5003668;28;8866;-71
2022/10/04 00:15:52;;;;;;;;;5.50;5.50;25.00;99.90;;;;;;4991318;28;8995;-72
2022/10/04 00:18:50;;;;;;;;;5.75;5.75;25.00;99.90;;;;;;5011944;28;9595;-70
2022/10/04 00:21:20;;;;;;;;;5.00;5.00;25.00;99.90;;;;;;4998452;28;9313;-74
2022/10/04 00:24:10;;;;;;;;;6.00;6.00;25.00;99.90;;;;;;4997911;28;8847;-70
2022/10/04 00:26:49;;;;;;;;;6.25;6.25;24.90;99.90;;;;;;5009725;28;8862;-70
2022/10/04 00:29:26;;;;;;;;;6.75;6.75;24.80;99.90;;;;;;5013115;28;8840;-71
2022/10/04 00:32:24;;;;;;;;;4.75;4.75;24.80;99.90;;;;;;5002531;28;8824;-70
2022/10/04 00:34:55;;;;;;;;;7.00;7.00;24.70;99.90;;;;;;5002386;28;8870;-73
2022/10/04 00:38:01;;;;;;;;;6.00;6.00;24.60;99.90;;;;;;5019449;28;8844;-74
2022/10/04 00:40:38;;;;;;;;;5.25;5.25;24.50;99.90;;;;;;5018287;28;8862;-74
2022/10/04 00:43:20;;;;;;;;;7.00;7.00;24.40;99.90;;;;;;5020850;28;8852;-73
2022/10/04 00:46:13;;;;;;;;;7.00;5.75;24.30;99.90;;;;;;4990419;28;8836;-71
2022/10/04 00:49:06;;;;;;;;;6.75;6.75;24.20;99.90;;;;;;5001438;28;8827;-74
2022/10/04 00:51:57;;;;;;;;;8.00;8.00;24.10;99.90;;;;;;5004183;28;8838;-74
2022/10/04 00:54:45;;;;;;;;;6.00;6.00;24.00;99.90;;;;;;5002670;28;9569;-76
2022/10/04 00:57:45;;;;;;;;;5.50;5.50;23.90;99.90;;;;;;5007903;28;8807;-73
2022/10/04 01:00:18;;;;;;;;;4.50;4.50;23.90;99.90;;;;;;5020697;28;9974;-73
2022/10/04 01:03:15;;;;;;;;;5.00;5.00;23.80;99.90;;;;;;5001519;28;8882;-75
2022/10/04 01:05:52;;;;;;;;;5.50;5.50;23.70;99.90;;;;;;4999611;28;8862;-75
2022/10/04 01:08:32;;;;;;;;;6.75;6.75;23.70;99.90;;;;;;5015924;28;8896;-74
2022/10/04 01:11:29;;;;;;;;;5.00;5.00;23.70;99.90;;;;;;5003526;28;8834;-74
2022/10/04 01:14:35;;;;;;;;;5.00;5.00;23.60;99.90;;;;;;5004638;28;8882;-75
2022/10/04 01:17:12;;;;;;;;;4.25;4.25;23.50;99.90;;;;;;5016381;28;8877;-74
2022/10/04 01:19:53;;;;;;;;;6.00;6.00;23.50;99.90;;;;;;5020298;28;8866;-75
2022/10/04 01:22:56;;;;;;;;;5.00;5.00;23.50;99.90;;;;;;5002009;28;8869;-76
2022/10/04 01:25:49;;;;;;;;;5.00;5.00;23.50;99.90;;;;;;5006304;28;8890;-72
2022/10/04 01:28:24;;;;;;;;;6.25;4.75;23.40;99.90;;;;;;5019054;28;8812;-73
2022/10/04 01:30:55;;;;;;;;;7.50;6.00;23.30;99.90;;;;;;5002336;28;8847;-72
2022/10/04 01:33:26;;;;;;;;;5.75;5.75;23.20;99.90;;;;;;5000368;28;9555;-72
2022/10/04 01:35:56;;;;;;;;;5.00;5.00;23.20;99.90;;;;;;5015570;28;8864;-72
2022/10/04 01:38:28;;;;;;;;;6.50;6.50;23.20;99.90;;;;;;5009934;28;8832;-73
2022/10/04 01:41:09;;;;;;;;;6.00;6.00;23.20;99.90;;;;;;4986429;28;8882;-73
2022/10/04 01:44:03;;;;;;;;;5.25;5.25;23.10;99.90;;;;;;5017207;28;8831;-73
2022/10/04 01:46:36;;;;;;;;;5.00;5.00;23.00;99.90;;;;;;5014839;28;8844;-74
2022/10/04 01:49:14;;;;;;;;;7.00;7.00;23.00;99.90;;;;;;4998006;28;8860;-74
2022/10/04 01:52:06;;;;;;;;;6.00;6.00;22.90;99.90;;;;;;5000957;28;8806;-71
2022/10/04 01:54:47;;;;;;;;;5.25;5.25;22.80;99.90;;;;;;5017695;28;8852;-71
2022/10/04 01:57:29;;;;;;;;;4.25;4.25;22.80;99.90;;;;;;5002627;28;8836;-71
2022/10/04 02:00:08;;;;;;;;;5.50;5.50;22.80;99.90;;;;;;5020919;28;8840;-72
2022/10/04 02:02:57;;;;;;;;;6.00;6.00;22.80;99.90;;;;;;5000326;28;8854;-72
2022/10/04 02:05:42;;;;;;;;;6.00;6.00;22.80;99.90;;;;;;4997636;28;8885;-71
2022/10/04 02:08:25;;;;;;;;;5.75;5.75;22.70;99.90;;;;;;5000728;28;8851;-70
2022/10/04 02:11:03;;;;;;;;;5.50;5.25;22.70;99.90;;;;;;4997288;28;8927;-71
2022/10/04 02:13:40;;;;;;;;;6.00;6.00;22.70;99.90;;;;;;4987073;28;8840;-72
2022/10/04 02:16:13;;;;;;;;;5.75;5.75;22.70;99.90;;;;;;5001349;28;8861;-70
2022/10/04 02:18:48;;;;;;;;;7.00;7.00;22.50;99.90;;;;;;5018986;28;10037;-72
2022/10/04 02:21:22;;;;;;;;;7.75;7.75;22.40;99.90;;;;;;5015789;28;8828;-72
2022/10/04 02:23:56;;;;;;;;;8.50;8.50;22.40;99.90;;;;;;5004154;28;8816;-72
2022/10/04 02:26:27;;;;;;;;;10.75;10.25;22.40;99.90;;;;;;5015689;28;8883;-72
2022/10/04 02:28:57;;;;;;;;;7.50;7.50;22.30;99.90;;;;;;5008230;28;8813;-70
2022/10/04 02:34:26;;;;;;;;;11.75;11.75;22.30;99.90;;;;;;5020114;28;8812;-71
2022/10/04 02:37:11;;;;;;;;;7.50;7.50;22.20;99.90;;;;;;5003154;28;9577;-71
2022/10/04 02:40:15;;;;;;;;;10.00;10.00;22.10;99.90;;;;;;5013321;28;8854;-72
2022/10/04 02:43:11;;;;;;;;;7.75;7.75;22.10;99.90;;;;;;4983777;28;8866;-71
2022/10/04 02:46:03;;;;;;;;;7.50;7.50;22.00;99.90;;;;;;5025660;28;8842;-71
2022/10/04 02:48:48;;;;;;;;;6.75;6.75;22.00;99.90;;;;;;5018923;28;8852;-72
2022/10/04 02:51:44;;;;;;;;;6.50;6.50;21.90;99.90;;;;;;5012757;28;8917;-73
2022/10/04 02:54:44;;;;;;;;;9.00;9.00;21.90;99.90;;;;;;5017878;28;8820;-71
2022/10/04 02:57:23;;;;;;;;;8.00;8.00;21.90;99.90;;;;;;5020807;28;8824;-72
2022/10/04 03:00:23;;;;;;;;;7.00;7.00;21.90;99.90;;;;;;5000505;28;8877;-73
2022/10/04 03:03:17;;;;;;;;;7.50;7.50;21.80;99.90;;;;;;5014812;28;8878;-72
2022/10/04 03:06:16;;;;;;;;;5.50;5.50;21.70;99.90;;;;;;5008985;28;8837;-70
2022/10/04 03:09:02;;;;;;;;;7.25;7.25;21.70;99.90;;;;;;5011895;28;8814;-69
2022/10/04 03:11:39;;;;;;;;;9.00;9.00;21.70;99.90;;;;;;4965433;28;8822;-70
2022/10/04 03:14:21;;;;;;;;;7.00;7.00;21.70;99.90;;;;;;4999904;28;8940;-71
2022/10/04 03:16:56;;;;;;;;;9.00;9.00;21.60;99.90;;;;;;4980482;28;8861;-69
2022/10/04 03:19:30;;;;;;;;;6.75;6.75;21.40;99.90;;;;;;4981862;28;8818;-73
2022/10/04 03:22:20;;;;;;;;;;;;;;;;;;;;;
2022/10/04 03:25:03;;;;;;;;;6.25;6.00;21.30;99.90;;;;;;4999550;28;9819;-71
2022/10/04 03:27:38;;;;;;;;;6.75;6.75;21.30;99.90;;;;;;4998674;28;8822;-71
2022/10/04 03:30:20;;;;;;;;;8.00;8.00;21.20;99.90;;;;;;4995146;28;9602;-73
2022/10/04 03:32:53;;;;;;;;;7.00;7.00;21.30;99.90;;;;;;4979333;28;9611;-72
2022/10/04 03:35:36;;;;;;;;;8.50;8.50;21.20;99.90;;;;;;4997568;28;8831;-70
2022/10/04 03:38:11;;;;;;;;;8.00;8.00;21.20;99.90;;;;;;4979381;28;8888;-69
2022/10/04 03:40:52;;;;;;;;;8.00;8.00;21.10;99.90;;;;;;4981218;28;8900;-72
2022/10/04 03:43:33;;;;;;;;;5.00;5.00;21.10;99.90;;;;;;4982445;28;9601;-72
2022/10/04 03:46:07;;;;;;;;;9.00;9.00;21.00;99.90;;;;;;4981461;28;8849;-70
2022/10/04 03:48:53;;;;;;;;;8.00;8.00;21.00;99.90;;;;;;4996868;28;9235;-70
2022/10/04 03:51:29;;;;;;;;;7.25;7.25;21.00;99.90;;;;;;4981494;28;8836;-71
2022/10/04 03:54:08;;;;;;;;;7.75;7.75;20.90;99.90;;;;;;4993407;28;8861;-69
2022/10/04 03:56:40;;;;;;;;;9.75;9.00;20.90;99.90;;;;;;4999727;28;8829;-72
2022/10/04 03:59:16;;;;;;;;;5.25;5.25;20.80;99.90;;;;;;4997105;28;8849;-72
2022/10/04 04:02:10;;;;;;;;;7.75;7.50;20.70;99.90;;;;;;4949285;28;8833;-71
2022/10/04 04:05:12;;;;;;;;;8.75;8.75;20.80;99.90;;;;;;4985205;28;8862;-71
2022/10/04 04:08:06;;;;;;;;;7.25;7.25;20.70;99.90;;;;;;4968236;28;8870;-71
2022/10/04 04:10:51;;;;;;;;;7.50;7.50;20.60;99.90;;;;;;4995411;28;8869;-70
2022/10/04 04:13:38;;;;;;;;;7.00;7.00;20.50;99.90;;;;;;5007622;28;8812;-71
2022/10/04 04:16:11;;;;;;;;;8.00;8.00;20.50;99.90;;;;;;5001910;28;8838;-70
2022/10/04 04:18:46;;;;;;;;;9.00;9.00;20.50;99.90;;;;;;5001475;28;8845;-69
2022/10/04 04:21:28;;;;;;;;;6.00;6.00;20.50;99.90;;;;;;5003200;28;8914;-70
2022/10/04 04:24:08;;;;;;;;;7.50;7.50;20.50;99.90;;;;;;4992383;28;8863;-71
2022/10/04 04:26:51;;;;;;;;;8.00;8.00;20.50;99.90;;;;;;5005615;28;8819;-69
2022/10/04 04:29:54;;;;;;;;;4.75;4.75;20.50;99.90;;;;;;5019063;28;8967;-69
2022/10/04 04:32:35;;;;;;;;;7.33;7.33;20.40;99.90;;;;;;5021838;28;8843;-72
2022/10/04 04:35:21;;;;;;;;;11.00;7.75;20.40;99.90;;;;;;5004259;28;8920;-70
2022/10/04 04:38:24;;;;;;;;;7.75;7.75;20.30;99.90;;;;;;5020193;28;8835;-71
2022/10/04 04:41:11;;;;;;;;;7.33;7.33;20.30;99.90;;;;;;5001699;28;8846;-70
2022/10/04 04:43:45;;;;;;;;;6.25;6.25;20.20;99.90;;;;;;5003213;28;9224;-70
2022/10/04 04:46:17;;;;;;;;;7.25;7.25;20.20;99.90;;;;;;5006865;28;9641;-69
2022/10/04 04:49:03;;;;;;;;;7.00;7.00;20.20;99.90;;;;;;5001196;28;8850;-70
2022/10/04 04:51:36;;;;;;;;;5.75;5.75;20.10;99.90;;;;;;5012740;28;8818;-71
2022/10/04 04:54:10;;;;;;;;;6.00;5.00;20.10;99.90;;;;;;5021874;28;8838;-72
2022/10/04 04:56:53;;;;;;;;;6.00;6.00;20.00;99.90;;;;;;5014914;28;8967;-72
2022/10/04 04:59:33;;;;;;;;;6.00;6.00;19.90;99.90;;;;;;5003709;28;8875;-72
2022/10/04 05:02:33;;;;;;;;;7.25;7.25;20.00;99.90;;;;;;5021927;28;8936;-75
2022/10/04 05:05:31;;;;;;;;;6.00;6.00;19.80;99.90;;;;;;5023243;28;8819;-76
2022/10/04 05:08:32;;;;;;;;;7.00;7.00;19.80;99.90;;;;;;5001610;28;8980;-74
2022/10/04 05:11:08;;;;;;;;;6.67;6.67;19.80;99.90;;;;;;4984552;28;9011;-74
2022/10/04 05:13:51;;;;;;;;;8.00;8.00;19.90;99.90;;;;;;5000189;28;8984;-74
2022/10/04 05:16:43;;;;;;;;;6.00;6.00;19.80;99.90;;;;;;5000980;28;8971;-74
2022/10/04 05:19:27;;;;;;;;;6.67;6.67;19.70;99.90;;;;;;4999126;28;8938;-74
2022/10/04 05:22:07;;;;;;;;;8.00;8.00;19.70;99.90;;;;;;4997404;28;8918;-70
2022/10/04 05:24:43;;;;;;;;;10.00;9.00;19.70;99.90;;;;;;5000060;28;9175;-72
2022/10/04 05:27:37;;;;;;;;;7.00;7.00;19.80;99.90;;;;;;4986965;28;9075;-71
2022/10/04 05:30:52;;;;;;;;;8.00;8.00;19.70;99.90;;;;;;4983946;28;9259;-76
2022/10/04 05:33:39;;;;;;;;;8.00;8.00;19.70;99.90;;;;;;4984003;28;9302;-75
2022/10/04 05:36:45;;;;;;;;;9.33;9.33;19.60;99.90;;;;;;4990392;28;9892;-76
2022/10/04 05:40:00;;;;;;;;;5.33;5.33;19.60;99.90;;;;;;4984620;28;9250;-75
2022/10/04 05:42:51;;;;;;;;;8.00;8.00;19.60;99.90;;;;;;5002816;28;8964;-72
2022/10/04 05:45:36;;;;;;;;;10.75;9.00;19.60;99.90;;;;;;4985861;28;9041;-72
2022/10/04 05:48:10;;;;;;;;;10.00;9.67;19.60;99.90;;;;;;4987810;28;8838;-72
2022/10/04 05:50:47;;;;;;;;;7.67;7.67;19.70;99.90;;;;;;5000252;28;9132;-72
2022/10/04 05:53:30;;;;;;;;;6.50;6.50;19.60;99.90;;;;;;5000443;28;9060;-72
2022/10/04 05:56:17;;;;;;;;;6.75;6.75;19.60;99.90;;;;;;5015837;28;8802;-75
2022/10/04 05:59:07;;;;;;;;;7.00;5.00;19.40;99.90;;;;;;5004581;28;9571;-75
2022/10/04 06:02:06;;;;;;;;;7.67;7.67;19.40;99.90;;;;;;5001120;28;8844;-71
2022/10/04 06:05:15;;;;;;;;;7.00;7.00;19.30;99.90;;;;;;5004356;28;8917;-72
2022/10/04 06:07:56;;;;;;;;;10.67;10.00;19.30;99.90;;;;;;4948222;28;9071;-72
2022/10/04 06:10:59;;;;;;;;;8.00;8.00;19.10;99.90;;;;;;4967949;28;9293;-76
2022/10/04 06:14:10;;;;;;;;;7.00;7.00;19.10;99.90;;;;;;4999945;28;8968;-76
2022/10/04 06:17:09;;;;;;;;;7.00;7.00;19.10;99.90;;;;;;4981554;28;9086;-76
2022/10/04 06:20:34;;;;;;;;;6.67;6.67;19.00;99.90;;;;;;4999279;28;9094;-76
2022/10/04 06:23:14;;;;;;;;;7.00;7.00;19.00;99.90;;;;;;4945407;28;9206;-71
2022/10/04 06:25:58;;;;;;;;;7.33;7.33;19.10;99.90;;;;;;4978915;28;9182;-73
2022/10/04 06:28:42;;;;;;;;;8.00;8.00;19.10;99.90;;;;;;4984926;28;9171;-72
2022/10/04 06:31:50;;;;;;;;;5.00;5.00;18.90;99.90;;;;;;4983414;28;9496;-71
2022/10/04 06:34:32;;;;;;;;;9.00;8.00;18.90;99.90;;;;;;4974515;28;9228;-72
2022/10/04 06:37:32;;;;;;;;;7.33;7.33;18.80;99.90;;;;;;5000167;28;9361;-71
2022/10/04 06:40:41;;;;;;;;;6.00;6.00;18.80;99.90;;;;;;4997885;28;9206;-71
2022/10/04 06:43:44;;;;;;;;;6.33;6.33;18.70;99.90;;;;;;4981020;28;9232;-72
2022/10/04 06:46:30;;;;;;;;;6.00;6.00;18.80;99.90;;;;;;4975926;28;9618;-72
2022/10/04 06:49:21;;;;;;;;;8.67;7.00;18.80;99.90;;;;;;5001862;28;9128;-72
2022/10/04 06:52:25;;;;;;;;;9.00;9.00;18.80;99.90;;;;;;4981249;28;9315;-76
2022/10/04 06:55:14;;;;;;;;;7.33;7.33;18.70;99.90;;;;;;4968751;28;9478;-76
2022/10/04 06:58:18;;;;;;;;;7.67;7.67;18.50;99.90;;;;;;4976193;28;9568;-75
2022/10/04 07:01:00;;;;;;;;;7.00;7.00;18.40;99.90;;;;;;4983977;28;9439;-74
2022/10/04 07:04:20;;;;;;;;;6.33;6.33;18.50;99.90;;;;;;4985236;28;9328;-72
2022/10/04 07:10:34;;;;;;;;;7.00;7.00;18.50;99.90;;;;;;5012646;28;9569;-70
2022/10/04 07:13:35;;;;;;;;;10.00;8.33;18.50;99.90;;;;;;5015301;28;9227;-72
2022/10/04 07:16:29;;;;;;;;;10.00;10.00;18.30;99.90;;;;;;5017581;28;9283;-72
2022/10/04 07:18:59;;;;;;;;;11.00;9.00;18.40;99.90;;;;;;5000238;28;9485;-72
2022/10/04 07:22:11;;;;;;;;;6.67;6.67;18.30;99.90;;;;;;4983401;28;9507;-72
2022/10/04 07:24:52;;;;;;;;;7.00;7.00;18.40;99.90;;;;;;4981769;28;10106;-71
2022/10/04 07:27:46;;;;;;;;;6.00;6.00;18.40;99.90;;;;;;4979385;28;9477;-73
2022/10/04 07:30:19;;;;;;;;;7.00;7.00;18.30;99.90;;;;;;4976606;28;9463;-72
2022/10/04 07:32:56;;;;;;;;;3.33;3.33;18.30;99.90;;;;;;5012459;28;9469;-71
2022/10/04 07:35:42;;;;;;;;;10.00;9.00;18.50;99.90;;;;;;5008615;28;9526;-72
2022/10/04 07:38:25;;;;;;;;;8.00;8.00;18.80;99.90;;;;;;4995768;28;9556;-71
2022/10/04 07:41:26;;;;;;;;;7.33;7.33;18.50;99.90;;;;;;5016814;28;9556;-74
2022/10/04 07:44:27;;;;;;;;;7.33;7.33;18.70;99.90;;;;;;5016974;28;9516;-75
2022/10/04 07:47:20;;;;;;;;;7.00;7.00;18.40;99.90;;;;;;5014967;28;9457;-73
2022/10/04 07:49:57;;;;;;;;;8.33;8.33;18.50;99.90;;;;;;5010230;28;9589;-74
2022/10/04 07:52:53;;;;;;;;;9.33;8.33;18.50;99.90;;;;;;4977840;28;9391;-72
2022/10/04 07:55:54;;;;;;;;;9.50;8.25;18.20;99.90;;;;;;4998629;28;9602;-75
2022/10/04 07:58:55;;;;;;;;;6.33;6.33;18.00;99.90;;;;;;5002415;28;9734;-75
2022/10/04 08:01:46;;;;;;;;;10.00;10.00;17.80;99.90;;;;;;5000355;28;9830;-72
2022/10/04 08:04:40;;;;;;;;;6.50;6.50;17.80;99.90;;;;;;5006126;28;9585;-71
2022/10/04 08:07:25;;;;;;;;;6.00;6.00;17.70;99.90;;;;;;5016271;28;9503;-72
2022/10/04 08:10:07;;;;;;;;;7.00;7.00;17.60;99.90;;;;;;5020112;28;9545;-71
2022/10/04 08:12:55;;;;;;;;;6.00;6.00;17.60;99.90;;;;;;4983685;28;9783;-74
2022/10/04 08:15:44;;;;;;;;;8.00;8.00;17.60;99.90;;;;;;5017313;28;9703;-72
2022/10/04 08:18:52;;;;;;;;;8.00;8.00;17.60;99.90;;;;;;4980029;28;10411;-72
2022/10/04 08:21:41;;;;;;;;;5.00;5.00;17.70;99.90;;;;;;5013254;28;9636;-70
2022/10/04 08:24:51;;;;;;;;;7.67;7.67;17.60;99.90;;;;;;5020927;28;10139;-70
2022/10/04 08:27:36;;;;;;;;;1.00;0.00;17.60;99.90;;;;;;5017982;28;9405;-75
2022/10/04 08:30:17;;;;;;;;;7.00;7.00;17.60;99.90;;;;;;5016914;28;9543;-76
2022/10/04 08:33:49;;;;;;;;;6.00;6.00;17.60;99.90;;;;;;4997560;28;9620;-71
2022/10/04 08:36:54;;;;;;;;;7.00;5.50;17.60;99.90;;;;;;5018207;28;9916;-74
2022/10/04 08:39:36;;;;;;;;;6.50;6.50;17.60;99.90;;;;;;5018204;28;9794;-75
2022/10/04 08:42:57;;;;;;;;;5.75;5.75;17.50;99.90;;;;;;5002834;28;9701;-75
2022/10/04 08:45:55;;;;;;;;;9.75;8.00;17.30;99.90;;;;;;5018344;28;9822;-72
2022/10/04 08:49:07;;;;;;;;;7.50;6.00;17.30;99.90;;;;;;4999488;28;9702;-72
2022/10/04 08:51:54;;;;;;;;;7.25;6.00;17.30;99.90;;;;;;5001585;28;9804;-71
2022/10/04 08:54:53;;;;;;;;;8.25;8.25;17.50;99.90;;;;;;5018502;28;9774;-72
2022/10/04 08:57:48;;;;;;;;;9.25;9.25;17.60;99.90;;;;;;5001012;28;9719;-72
2022/10/04 09:00:47;;;;;;;;;5.00;5.00;17.60;99.90;;;;;;5016969;28;10003;-72
2022/10/04 09:03:44;;;;;;;;;7.25;7.25;17.60;99.90;;;;;;5004898;28;9542;-72
2022/10/04 09:06:39;;;;;;;;;7.75;7.75;17.70;99.90;;;;;;5019842;28;9786;-71
2022/10/04 09:09:34;;;;;;;;;8.00;8.00;17.80;99.90;;;;;;5018890;28;9794;-72
2022/10/04 09:12:35;;;;;;;;;8.50;8.00;17.90;99.90;;;;;;5002668;28;9796;-74
2022/10/04 09:15:40;;;;;;;;;5.00;5.00;17.80;99.90;;;;;;5001031;28;9693;-75
2022/10/04 09:18:46;;;;;;;;;7.50;7.50;18.00;99.90;;;;;;4975247;28;9729;-76
2022/10/04 09:21:56;;;;;;;;;3.75;3.75;18.20;99.90;;;;;;5001212;28;10644;-75
2022/10/04 09:24:50;;;;;;;;;7.50;7.50;18.10;99.90;;;;;;5001448;28;9757;-75
2022/10/04 09:28:09;;;;;;;;;8.00;8.00;17.90;99.90;;;;;;4995240;28;10438;-71
2022/10/04 09:30:49;;;;;;;;;7.00;7.00;17.90;99.90;;;;;;4999283;28;9595;-75
2022/10/04 09:33:38;;;;;;;;;6.00;6.00;17.90;99.90;;;;;;5017906;28;9733;-75
2022/10/04 09:36:39;;;;;;;;;5.00;5.00;17.90;99.90;;;;;;4999743;28;9685;-73
2022/10/04 09:39:34;;;;;;;;;7.00;7.00;17.60;99.90;;;;;;5001843;28;9861;-76
2022/10/04 09:42:38;;;;;;;;;6.50;6.00;17.50;99.90;;;;;;5004167;28;9842;-76
2022/10/04 09:45:41;;;;;;;;;7.00;7.00;17.50;99.90;;;;;;5008078;28;9604;-75
2022/10/04 09:48:41;;;;;;;;;6.25;6.25;17.40;99.90;;;;;;5004938;28;9749;-76
2022/10/04 09:52:00;;;;;;;;;5.75;5.75;17.60;99.90;;;;;;5003111;28;9883;-72
2022/10/04 09:55:05;;;;;;;;;8.25;8.25;17.50;99.90;;;;;;5017352;28;9882;-72
2022/10/04 09:57:56;;;;;;;;;7.25;7.25;17.60;99.90;;;;;;5004198;28;9790;-71
2022/10/04 10:00:39;;;;;;;;;4.75;4.75;17.60;99.90;;;;;;5002989;28;9978;-75
2022/10/04 10:03:40;;;;;;;;;7.50;7.50;17.60;99.90;;;;;;5017210;28;9706;-75
2022/10/04 10:06:59;;;;;;;;;8.00;8.00;17.60;99.90;;;;;;5001141;28;9785;-75
2022/10/04 10:13:53;;;;;;;;;5.50;5.50;17.40;99.90;;;;;;5020084;28;9506;-71
2022/10/04 10:16:50;;;;;;;;;2.75;2.25;17.60;99.90;;;;;;4909222;28;10655;-72
2022/10/04 10:19:55;;;;;;;;;5.00;5.00;17.50;99.90;;;;;;4936421;28;9907;-72
2022/10/04 10:25:40;;;;;;;;;8.50;8.50;17.40;99.90;;;;;;4969437;28;10065;-62
2022/10/04 10:28:16;;;;;;;;;7.25;7.25;17.60;99.90;;;;;;5012126;28;9775;-66
2022/10/04 10:31:23;;;;;;;;;4.00;4.00;17.70;99.90;;;;;;5027081;28;9915;-66
2022/10/04 10:34:32;;;;;;;;;7.75;7.75;17.60;99.90;;;;;;5010966;28;10185;-64
2022/10/04 10:37:33;;;;;;;;;5.00;5.00;17.50;99.90;;;;;;5005971;28;10066;-63
2022/10/04 10:40:31;;;;;;;;;7.00;7.00;17.40;99.90;;;;;;5019624;28;10105;-64
2022/10/04 10:43:40;;;;;;;;;7.00;7.00;17.20;99.90;;;;;;5033441;28;9776;-66
2022/10/04 10:46:57;;;;;;;;;9.00;9.00;17.20;99.90;;;;;;5029648;28;9759;-66
2022/10/04 10:49:43;;;;;;;;;7.75;7.75;17.20;99.90;;;;;;5023376;28;9825;-63
2022/10/04 10:52:54;;;;;;;;;7.00;7.00;17.10;99.90;;;;;;5026609;28;9966;-62
2022/10/04 10:55:58;;;;;;;;;7.50;7.50;17.10;99.90;;;;;;5027260;28;9770;-67
2022/10/04 10:58:47;;;;;;;;;7.25;7.25;17.10;99.90;;;;;;5024096;28;9929;-66
2022/10/04 11:02:05;;;;;;;;;7.50;7.50;17.10;99.90;;;;;;5025435;28;10202;-66
2022/10/04 11:05:18;;;;;;;;;8.50;8.50;17.20;99.90;;;;;;5035079;28;9905;-62
2022/10/04 11:07:54;;;;;;;;;7.75;7.75;17.10;99.90;;;;;;4950916;28;9871;-64
2022/10/04 11:10:33;;;;;;;;;7.00;7.00;17.10;99.90;;;;;;4948804;28;10005;-66
2022/10/04 11:13:20;;;;;;;;;9.75;8.00;17.20;99.90;;;;;;5000131;28;10039;-66
2022/10/04 11:16:09;;;;;;;;;9.00;9.00;17.10;99.90;;;;;;5033565;28;10913;-66
2022/10/04 11:19:15;;;;;;;;;7.50;7.50;17.20;99.90;;;;;;5032310;28;10333;-65
2022/10/04 11:22:19;;;;;;;;;9.75;9.75;17.10;99.90;;;;;;5037397;28;10089;-64
2022/10/04 11:25:10;;;;;;;;;7.00;7.00;17.20;99.90;;;;;;5025855;28;10031;-62
2022/10/04 11:27:46;;;;;;;;;7.50;7.50;17.30;99.90;;;;;;5013982;28;9999;-63
2022/10/04 11:30:24;;;;;;;;;10.75;10.75;17.50;99.90;;;;;;5031696;28;10905;-65
2022/10/04 11:33:33;;;;;;;;;7.25;7.25;17.30;99.90;;;;;;5015561;28;9991;-67
2022/10/04 11:36:32;;;;;;;;;7.00;7.00;17.30;99.90;;;;;;5034944;28;9874;-62
2022/10/04 11:40:01;;;;;;;;;8.50;8.50;17.10;99.90;;;;;;5045217;28;9685;-62
2022/10/04 11:42:53;;;;;;;;;9.00;9.00;17.40;99.90;;;;;;4974879;28;10046;-63
2022/10/04 11:45:56;;;;;;;;;6.50;6.50;17.30;99.90;;;;;;4991668;28;9975;-65
2022/10/04 11:48:47;;;;;;;;;4.00;4.00;17.20;99.90;;;;;;5008279;28;10116;-63
2022/10/04 11:52:15;;;;;;;;;8.25;7.75;17.00;99.90;;;;;;5017685;28;10004;-63
2022/10/04 11:55:19;;;;;;;;;7.75;7.75;16.80;99.90;;;;;;5001755;28;10193;-67
2022/10/04 11:58:26;;;;;;;;;8.50;8.50;16.70;99.90;;;;;;5012749;28;10079;-66
2022/10/04 12:01:17;;;;;;;;;8.25;8.25;17.00;99.90;;;;;;5030169;28;10121;-66
2022/10/04 12:04:09;;;;;;;;;6.00;6.00;16.90;99.90;;;;;;5026294;28;10033;-66
2022/10/04 12:07:21;;;;;;;;;9.25;9.25;16.60;99.90;;;;;;5024356;28;10188;-65
2022/10/04 12:10:19;;;;;;;;;7.25;7.25;16.80;99.90;;;;;;4981387;28;10069;-65
2022/10/04 12:13:17;;;;;;;;;8.00;7.00;16.70;99.90;;;;;;5031225;28;10051;-66
2022/10/04 12:16:16;;;;;;;;;5.50;5.50;17.00;99.90;;;;;;5029453;28;10154;-64
2022/10/04 12:18:54;;;;;;;;;7.00;7.00;16.90;99.90;;;;;;5028325;28;10166;-65
2022/10/04 12:21:57;;;;;;;;;9.50;7.25;16.90;99.90;;;;;;5044553;28;10205;-65
2022/10/04 12:24:56;;;;;;;;;8.25;8.25;16.80;99.90;;;;;;5006594;28;10144;-63
2022/10/04 12:28:10;;;;;;;;;9.75;9.75;16.70;99.90;;;;;;5022061;28;10240;-62
2022/10/04 12:31:04;;;;;;;;;8.00;7.00;16.70;99.90;;;;;;5024758;28;10172;-65
2022/10/04 12:33:39;;;;;;;;;8.00;8.00;16.80;99.90;;;;;;5033861;28;10007;-62
2022/10/04 12:36:28;;;;;;;;;7.00;7.00;16.80;99.90;;;;;;5016542;28;10128;-62
2022/10/04 12:39:33;;;;;;;;;7.50;7.00;16.50;99.90;;;;;;4999792;28;10200;-65
2022/10/04 12:42:57;;;;;;;;;9.00;8.50;16.40;99.90;;;;;;5030027;28;10167;-66
2022/10/04 12:45:48;;;;;;;;;6.00;6.00;16.40;99.90;;;;;;4937367;28;10300;-66
2022/10/04 12:48:42;;;;;;;;;9.25;8.75;16.40;99.90;;;;;;5031227;28;10309;-64
2022/10/04 12:51:25;;;;;;;;;8.75;8.75;16.40;99.90;;;;;;5018476;28;10775;-64
2022/10/04 12:54:26;;;;;;;;;8.75;8.75;16.30;99.90;;;;;;4997400;28;10062;-67
2022/10/04 12:57:08;;;;;;;;;8.00;6.25;16.30;99.90;;;;;;5029170;28;10261;-65
2022/10/04 13:00:18;;;;;;;;;10.00;10.00;16.50;99.90;;;;;;5037172;28;10157;-63
2022/10/04 13:03:01;;;;;;;;;8.75;8.75;16.60;99.90;;;;;;5033256;28;10173;-62
2022/10/04 13:05:46;;;;;;;;;7.00;7.00;16.50;99.90;;;;;;5031398;28;10850;-63
2022/10/04 13:09:01;;;;;;;;;6.50;6.50;16.50;99.90;;;;;;5032718;28;10954;-62
2022/10/04 13:11:51;;;;;;;;;11.00;11.00;16.60;99.90;;;;;;5029484;28;10012;-62
2022/10/04 13:14:50;;;;;;;;;7.25;7.25;16.80;99.90;;;;;;5028550;28;10417;-65
2022/10/04 13:17:32;;;;;;;;;9.25;9.25;16.70;99.90;;;;;;5026227;28;11568;-64
2022/10/04 13:20:37;;;;;;;;;9.00;7.50;16.60;99.90;;;;;;5031690;28;10127;-63
2022/10/04 13:25:56;;;;;;;;;10.00;9.25;16.80;99.90;;;;;;5018211;28;13603;-60
2022/10/04 13:29:01;;;;;;;;;9.75;9.75;16.90;99.90;;;;;;5013499;28;10119;-62
2022/10/04 13:31:47;;;;;;;;;10.00;10.00;16.90;99.90;;;;;;5024824;28;10183;-62
2022/10/04 13:34:43;;;;;;;;;12.00;11.25;16.90;99.90;;;;;;5007323;28;10182;-58
2022/10/04 13:37:22;;;;;;;;;11.50;10.00;16.80;99.90;;;;;;5014048;28;10234;-63
2022/10/04 13:40:21;;;;;;;;;8.00;8.00;17.20;99.90;;;;;;5007963;28;10127;-63
2022/10/04 13:43:29;;;;;;;;;8.50;8.50;17.40;99.90;;;;;;5009704;28;9939;-62
2022/10/04 13:46:14;;;;;;;;;6.00;6.00;17.50;99.90;;;;;;5006228;28;10794;-65
2022/10/04 13:48:56;;;;;;;;;11.75;10.25;17.40;99.90;;;;;;5015087;28;10638;-64
2022/10/04 13:51:39;;;;;;;;;8.50;8.50;17.40;99.90;;;;;;5036155;28;10607;-63
2022/10/04 13:57:51;;;;;;;;;6.75;6.75;17.80;99.90;;;;;;4986536;28;9973;-64
2022/10/04 14:00:32;;;;;;;;;7.50;7.50;18.20;99.90;;;;;;5011332;28;10101;-62
2022/10/04 14:03:34;;;;;;;;;9.75;9.75;18.10;99.90;;;;;;5023524;28;10185;-62
2022/10/04 14:06:34;;;;;;;;;8.00;8.00;18.20;99.90;;;;;;5008789;28;10091;-63
2022/10/04 14:09:29;;;;;;;;;7.50;7.50;18.20;99.90;;;;;;5018566;28;10178;-64
2022/10/04 14:12:25;;;;;;;;;8.50;8.50;18.40;99.90;;;;;;5010773;28;10255;-65
2022/10/04 14:15:37;;;;;;;;;9.00;9.00;18.60;99.90;;;;;;5010657;28;9852;-68
2022/10/04 14:18:23;;;;;;;;;9.00;9.00;18.60;99.90;;;;;;5009425;28;9951;-65
2022/10/04 14:21:20;;;;;;;;;6.75;6.75;18.60;99.90;;;;;;5018659;28;10123;-65
2022/10/04 14:24:16;;;;;;;;;4.00;4.00;18.70;99.90;;;;;;5015238;28;10383;-64
2022/10/04 14:27:19;;;;;;;;;6.00;6.00;18.90;99.90;;;;;;5008665;28;10468;-63
2022/10/04 14:30:06;;;;;;;;;4.00;4.00;18.90;99.90;;;;;;5034923;28;10210;-64
2022/10/04 14:33:03;;;;;;;;;5.25;4.75;19.00;99.90;;;;;;5025549;28;10035;-64
2022/10/04 14:35:52;;;;;;;;;8.50;8.50;19.10;99.90;;;;;;5011440;28;9709;-65
2022/10/04 14:39:03;;;;;;;;;9.00;9.00;19.10;99.90;;;;;;4990094;28;9805;-65
2022/10/04 14:42:06;;;;;;;;;10.75;9.00;19.30;99.90;;;;;;4978851;28;9743;-64
2022/10/04 14:44:57;;;;;;;;;9.00;9.00;19.40;99.90;;;;;;4997079;28;10691;-66
2022/10/04 14:47:49;;;;;;;;;9.25;9.25;19.40;99.90;;;;;;5013432;28;9611;-64
2022/10/04 14:50:32;;;;;;;;;7.25;7.25;19.50;99.90;;;;;;4998755;28;9542;-66
2022/10/04 14:53:19;;;;;;;;;9.25;9.25;19.60;99.90;;;;;;5003215;28;10336;-62
2022/10/04 14:56:06;;;;;;;;;4.75;4.75;19.60;99.90;;;;;;5028055;28;9763;-63
2022/10/04 14:58:57;;;;;;;;;7.33;7.33;19.70;99.90;;;;;;4999868;28;9761;-63
2022/10/04 15:01:37;;;;;;;;;7.67;7.67;19.70;99.90;;;;;;4988136;28;9477;-63
2022/10/04 15:04:55;;;;;;;;;6.00;6.00;19.70;99.90;;;;;;5021789;28;9582;-63
2022/10/04 15:08:24;;;;;;;;;9.67;9.00;19.90;99.90;;;;;;4956638;28;9628;-68
2022/10/04 15:11:02;;;;;;;;;9.67;8.67;19.90;99.90;;;;;;5002432;28;9529;-66
2022/10/04 15:13:54;;;;;;;;;8.00;8.00;20.00;99.90;;;;;;4981343;28;9611;-63
2022/10/04 15:16:43;;;;;;;;;8.00;8.00;20.00;99.90;;;;;;5019979;28;10205;-65
2022/10/04 15:19:20;;;;;;;;;5.33;5.33;20.00;99.90;;;;;;4997344;28;9562;-65
2022/10/04 15:21:58;;;;;;;;;10.50;9.75;20.10;99.90;;;;;;4997265;28;9619;-62